Time;durP1;ratioP1;P1;durP2;ratioP2;P2;SDS_P1;SDS_P2;PMS_P1;PMS_P2;Temp;Humidity;BMP_temperature;BMP_pressure;BME280_temperature;BME280_humidity;BME280_pressure;Samples;Min_cycle;Max_cycle;Signal;HPM_P1;HPM_P2
2022/03/08 00:01:41;;;;;;;13.23;9.15;;;;;;;;;;4861875;29;20050;-84
2022/03/08 00:04:09;;;;;;;13.05;9.13;;;;;;;;;;4842030;29;20053;-85
2022/03/08 00:06:37;;;;;;;15.77;8.85;;;;;;;;;;4844528;29;20050;-84
2022/03/08 00:09:06;;;;;;;14.70;9.68;;;;;;;;;;4857511;29;20057;-85
2022/03/08 00:11:34;;;;;;;13.88;7.68;;;;;;;;;;4861856;29;20042;-85
2022/03/08 00:14:02;;;;;;;19.80;9.52;;;;;;;;;;4863823;29;20048;-85
2022/03/08 00:16:30;;;;;;;17.98;11.15;;;;;;;;;;4861671;29;20050;-85
2022/03/08 00:18:58;;;;;;;8.65;7.32;;;;;;;;;;4857535;29;20496;-85
2022/03/08 00:21:26;;;;;;;17.92;10.15;;;;;;;;;;4860768;29;20416;-86
2022/03/08 00:23:55;;;;;;;21.42;12.55;;;;;;;;;;4857942;29;20053;-85
2022/03/08 00:26:24;;;;;;;13.98;9.25;;;;;;;;;;4855622;29;20057;-85
2022/03/08 00:28:52;;;;;;;13.38;9.02;;;;;;;;;;4858539;29;20479;-85
2022/03/08 00:31:20;;;;;;;15.30;8.45;;;;;;;;;;4841448;29;20103;-85
2022/03/08 00:33:48;;;;;;;13.55;9.15;;;;;;;;;;4861065;29;20054;-85
2022/03/08 00:36:16;;;;;;;17.67;8.80;;;;;;;;;;4843811;29;20072;-85
2022/03/08 00:38:45;;;;;;;15.10;9.38;;;;;;;;;;4858942;29;20053;-85
2022/03/08 00:41:13;;;;;;;13.27;10.05;;;;;;;;;;4863780;29;20041;-84
2022/03/08 00:43:43;;;;;;;10.75;8.50;;;;;;;;;;4860278;29;20050;-84
2022/03/08 00:46:12;;;;;;;13.80;10.45;;;;;;;;;;4859921;29;20075;-85
2022/03/08 00:48:40;;;;;;;17.35;11.20;;;;;;;;;;4844221;29;20049;-85
2022/03/08 00:51:09;;;;;;;19.40;10.02;;;;;;;;;;4843913;29;20053;-85
2022/03/08 00:53:37;;;;;;;15.10;11.40;;;;;;;;;;4864460;29;20702;-85
2022/03/08 00:56:05;;;;;;;12.48;8.70;;;;;;;;;;4861610;29;20056;-85
2022/03/08 00:58:35;;;;;;;10.85;9.70;;;;;;;;;;4857432;29;20056;-85
2022/03/08 01:01:04;;;;;;;18.75;10.10;;;;;;;;;;4863373;29;20045;-85
2022/03/08 01:03:32;;;;;;;13.65;12.05;;;;;;;;;;4862245;29;20049;-85
2022/03/08 01:06:01;;;;;;;19.45;12.07;;;;;;;;;;4862154;29;20052;-85
2022/03/08 01:08:30;;;;;;;13.82;9.23;;;;;;;;;;4861723;29;20364;-85
2022/03/08 01:10:58;;;;;;;12.82;10.63;;;;;;;;;;4844660;29;20045;-85
2022/03/08 01:13:26;;;;;;;16.20;9.20;;;;;;;;;;4862414;29;20054;-85
2022/03/08 01:15:54;;;;;;;14.90;9.57;;;;;;;;;;4855440;29;20383;-85
2022/03/08 01:18:23;;;;;;;13.27;8.73;;;;;;;;;;4845111;29;20526;-85
2022/03/08 01:20:52;;;;;;;16.20;9.90;;;;;;;;;;4859970;29;20046;-85
2022/03/08 01:23:20;;;;;;;18.95;12.05;;;;;;;;;;4846168;29;20057;-85
2022/03/08 01:25:48;;;;;;;20.70;11.93;;;;;;;;;;4863292;29;20513;-85
2022/03/08 01:28:17;;;;;;;9.63;8.52;;;;;;;;;;4858844;29;20045;-86
2022/03/08 01:30:46;;;;;;;11.60;8.70;;;;;;;;;;4863004;29;20042;-85
2022/03/08 01:33:14;;;;;;;15.02;9.27;;;;;;;;;;4848639;29;20053;-85
2022/03/08 01:35:44;;;;;;;17.92;11.05;;;;;;;;;;4846116;29;20057;-85
2022/03/08 01:38:12;;;;;;;18.08;12.07;;;;;;;;;;4859329;29;20436;-85
2022/03/08 01:40:40;;;;;;;18.92;10.40;;;;;;;;;;4859820;29;20056;-86
2022/03/08 01:43:08;;;;;;;21.08;11.68;;;;;;;;;;4853454;29;20500;-85
2022/03/08 01:45:36;;;;;;;12.35;9.75;;;;;;;;;;4838405;29;20056;-86
2022/03/08 01:48:05;;;;;;;20.02;12.35;;;;;;;;;;4842083;29;20052;-85
2022/03/08 01:50:33;;;;;;;17.20;9.05;;;;;;;;;;4843161;29;20048;-85
2022/03/08 01:53:01;;;;;;;24.42;12.65;;;;;;;;;;4839519;29;20053;-85
2022/03/08 01:55:29;;;;;;;16.60;12.23;;;;;;;;;;4860183;29;20064;-85
2022/03/08 01:57:57;;;;;;;20.85;11.13;;;;;;;;;;4861122;29;20045;-85
2022/03/08 02:00:29;;;;;;;15.45;10.23;;;;;;;;;;4834803;29;20068;-85
2022/03/08 02:03:01;;;;;;;11.98;9.18;;;;;;;;;;4841824;29;20049;-85
2022/03/08 02:05:29;;;;;;;10.98;7.15;;;;;;;;;;4843711;29;20048;-85
2022/03/08 02:07:58;;;;;;;19.65;10.80;;;;;;;;;;4863800;29;20044;-85
2022/03/08 02:10:26;;;;;;;5.30;4.75;;;;;;;;;;4861101;29;20069;-86
2022/03/08 02:13:05;;;;;;;12.10;9.13;;;;;;;;;;4840939;29;20044;-85
2022/03/08 02:16:09;;;;;;;18.33;9.55;;;;;;;;;;4823374;29;20046;-86
2022/03/08 02:19:04;;;;;;;17.92;10.82;;;;;;;;;;4849996;29;20396;-86
2022/03/08 02:22:13;;;;;;;9.82;8.77;;;;;;;;;;4849395;29;20038;-86
2022/03/08 02:24:55;;;;;;;17.00;11.70;;;;;;;;;;4850845;29;20511;-85
2022/03/08 02:27:55;;;;;;;14.85;13.60;;;;;;;;;;4849782;29;20045;-85
2022/03/08 02:30:28;;;;;;;7.75;6.97;;;;;;;;;;4852407;29;20053;-85
2022/03/08 02:32:56;;;;;;;12.38;9.60;;;;;;;;;;4852083;29;20068;-85
2022/03/08 02:35:29;;;;;;;8.90;7.80;;;;;;;;;;4849442;29;20054;-86
2022/03/08 02:38:02;;;;;;;7.28;6.55;;;;;;;;;;4847810;29;20738;-86
2022/03/08 02:40:32;;;;;;;9.82;8.82;;;;;;;;;;4852158;29;20061;-86
2022/03/08 02:43:00;;;;;;;13.15;8.68;;;;;;;;;;4848651;29;20049;-85
2022/03/08 02:45:28;;;;;;;17.58;12.02;;;;;;;;;;4852603;29;20045;-85
2022/03/08 02:47:56;;;;;;;12.60;8.50;;;;;;;;;;4851301;29;20049;-86
2022/03/08 02:50:24;;;;;;;15.35;10.73;;;;;;;;;;4848449;29;20144;-85
2022/03/08 02:52:53;;;;;;;17.48;9.55;;;;;;;;;;4850729;29;20057;-86
2022/03/08 02:55:23;;;;;;;24.33;10.40;;;;;;;;;;4849338;29;20053;-85
2022/03/08 02:57:51;;;;;;;12.82;9.43;;;;;;;;;;4837551;29;20057;-86
2022/03/08 03:00:20;;;;;;;13.52;8.73;;;;;;;;;;4850680;29;20064;-85
2022/03/08 03:02:48;;;;;;;14.38;10.38;;;;;;;;;;4847902;29;20060;-85
2022/03/08 03:05:16;;;;;;;18.33;10.68;;;;;;;;;;4850477;29;20060;-85
2022/03/08 03:07:44;;;;;;;10.70;9.55;;;;;;;;;;4834964;29;20053;-85
2022/03/08 03:10:14;;;;;;;10.23;8.63;;;;;;;;;;4855361;29;20404;-85
2022/03/08 03:12:42;;;;;;;12.05;8.45;;;;;;;;;;4850449;29;20049;-84
2022/03/08 03:15:11;;;;;;;7.88;7.18;;;;;;;;;;4836616;29;20408;-85
2022/03/08 03:17:39;;;;;;;14.18;12.70;;;;;;;;;;4849750;29;20487;-84
2022/03/08 03:20:08;;;;;;;7.88;7.18;;;;;;;;;;4850175;29;20053;-86
2022/03/08 03:22:36;;;;;;;8.00;7.32;;;;;;;;;;4850253;29;20053;-86
2022/03/08 03:25:04;;;;;;;9.10;8.25;;;;;;;;;;4855404;29;20072;-85
2022/03/08 03:27:32;;;;;;;10.05;9.05;;;;;;;;;;4850290;29;20049;-85
2022/03/08 03:30:00;;;;;;;13.18;11.80;;;;;;;;;;4850988;29;20053;-85
2022/03/08 03:32:29;;;;;;;13.30;9.90;;;;;;;;;;4835847;29;20053;-85
2022/03/08 03:34:57;;;;;;;14.73;8.68;;;;;;;;;;4817672;29;20054;-86
2022/03/08 03:37:25;;;;;;;17.23;8.40;;;;;;;;;;4831369;29;20054;-85
2022/03/08 03:39:53;;;;;;;17.95;10.77;;;;;;;;;;4832567;29;20057;-86
2022/03/08 03:42:21;;;;;;;13.60;8.35;;;;;;;;;;4820705;29;20050;-86
2022/03/08 03:44:49;;;;;;;13.48;8.27;;;;;;;;;;4851521;29;20049;-86
2022/03/08 03:47:17;;;;;;;19.00;8.10;;;;;;;;;;4857219;29;20054;-86
2022/03/08 03:49:45;;;;;;;13.57;8.68;;;;;;;;;;4850819;29;20053;-86
2022/03/08 03:52:13;;;;;;;11.18;10.02;;;;;;;;;;4853470;29;20050;-86
2022/03/08 03:54:41;;;;;;;14.65;9.02;;;;;;;;;;4855640;29;20046;-85
2022/03/08 03:57:11;;;;;;;7.90;5.90;;;;;;;;;;4851922;29;20056;-85
2022/03/08 03:59:40;;;;;;;12.80;8.70;;;;;;;;;;4856945;29;20050;-85
2022/03/08 04:02:08;;;;;;;8.65;7.47;;;;;;;;;;4852250;29;20049;-85
2022/03/08 04:04:36;;;;;;;17.98;11.13;;;;;;;;;;4853885;29;20046;-85
2022/03/08 04:07:08;;;;;;;16.00;10.80;;;;;;;;;;4859283;29;20054;-86
2022/03/08 04:09:36;;;;;;;17.27;12.40;;;;;;;;;;4853740;29;20052;-85
2022/03/08 04:12:04;;;;;;;20.52;8.88;;;;;;;;;;4859073;29;20064;-85
2022/03/08 04:14:32;;;;;;;14.07;9.65;;;;;;;;;;4858926;29;20049;-85
2022/03/08 04:17:02;;;;;;;17.50;12.70;;;;;;;;;;4861915;29;20041;-85
2022/03/08 04:19:30;;;;;;;13.95;9.45;;;;;;;;;;4865266;29;20045;-85
2022/03/08 04:21:58;;;;;;;14.30;6.85;;;;;;;;;;4834018;29;20508;-85
2022/03/08 04:24:27;;;;;;;12.57;7.95;;;;;;;;;;4825785;29;20041;-85
2022/03/08 04:26:55;;;;;;;13.27;9.23;;;;;;;;;;4826571;29;20058;-85
2022/03/08 04:29:23;;;;;;;22.88;10.20;;;;;;;;;;4822101;29;20069;-85
2022/03/08 04:31:51;;;;;;;20.20;8.43;;;;;;;;;;4857421;29;20528;-85
2022/03/08 04:34:19;;;;;;;18.50;9.52;;;;;;;;;;4861770;29;20059;-86
2022/03/08 04:36:47;;;;;;;14.45;8.90;;;;;;;;;;4856521;29;20042;-85
2022/03/08 04:39:15;;;;;;;12.35;8.38;;;;;;;;;;4823334;29;20705;-86
2022/03/08 04:41:43;;;;;;;9.82;8.50;;;;;;;;;;4825181;29;20560;-85
2022/03/08 04:44:11;;;;;;;16.13;8.50;;;;;;;;;;4855106;29;20408;-85
2022/03/08 04:46:43;;;;;;;;;;;;;;;;;;4855233;29;20053;-85
2022/03/08 04:49:11;;;;;;;8.07;6.35;;;;;;;;;;4854965;29;19932;-85
2022/03/08 04:51:39;;;;;;;17.73;9.52;;;;;;;;;;4852793;29;20828;-85
2022/03/08 04:54:07;;;;;;;13.88;9.82;;;;;;;;;;4826061;29;20056;-79
2022/03/08 04:56:35;;;;;;;13.82;9.50;;;;;;;;;;4854964;29;20392;-85
2022/03/08 04:59:03;;;;;;;10.70;8.10;;;;;;;;;;4838376;29;20060;-85
2022/03/08 05:01:32;;;;;;;15.02;11.15;;;;;;;;;;4850744;29;20038;-85
2022/03/08 05:04:00;;;;;;;14.88;9.60;;;;;;;;;;4826479;29;20061;-85
2022/03/08 05:06:30;;;;;;;10.35;8.23;;;;;;;;;;4841049;29;20042;-85
2022/03/08 05:08:58;;;;;;;11.20;7.20;;;;;;;;;;4849635;29;20061;-85
2022/03/08 05:11:26;;;;;;;11.70;8.82;;;;;;;;;;4859302;29;20046;-85
2022/03/08 05:13:54;;;;;;;11.13;8.20;;;;;;;;;;4858575;29;20044;-85
2022/03/08 05:16:22;;;;;;;9.85;7.38;;;;;;;;;;4857043;29;20053;-85
2022/03/08 05:18:50;;;;;;;11.80;7.35;;;;;;;;;;4836256;29;20494;-85
2022/03/08 05:21:18;;;;;;;27.00;9.88;;;;;;;;;;4826725;29;20088;-85
2022/03/08 05:23:46;;;;;;;10.75;9.48;;;;;;;;;;4827398;29;20068;-85
2022/03/08 05:26:14;;;;;;;4.70;4.40;;;;;;;;;;4854576;29;20045;-85
2022/03/08 05:28:46;;;;;;;35.08;9.00;;;;;;;;;;4808900;29;20038;-85
2022/03/08 05:31:14;;;;;;;14.82;8.40;;;;;;;;;;4850830;29;20041;-85
2022/03/08 05:33:42;;;;;;;14.40;9.85;;;;;;;;;;4835948;29;20042;-86
2022/03/08 05:36:10;;;;;;;12.25;7.65;;;;;;;;;;4817764;29;20044;-87
2022/03/08 05:38:41;;;;;;;10.48;5.95;;;;;;;;;;4824157;29;20072;-86
2022/03/08 05:41:09;;;;;;;5.97;4.72;;;;;;;;;;4824082;29;20053;-87
2022/03/08 05:43:37;;;;;;;14.57;6.68;;;;;;;;;;4809214;29;20049;-86
2022/03/08 05:46:05;;;;;;;8.45;7.68;;;;;;;;;;4834615;29;20042;-86
2022/03/08 05:48:33;;;;;;;12.10;9.00;;;;;;;;;;4822402;29;20053;-86
2022/03/08 05:51:01;;;;;;;17.90;8.20;;;;;;;;;;4805800;29;20056;-86
2022/03/08 05:53:30;;;;;;;16.13;8.65;;;;;;;;;;4834595;29;20045;-87
2022/03/08 05:55:57;;;;;;;10.57;8.57;;;;;;;;;;4831448;29;20052;-86
2022/03/08 05:58:31;;;;;;;6.75;5.70;;;;;;;;;;4820181;29;20049;-85
2022/03/08 06:00:59;;;;;;;11.57;8.43;;;;;;;;;;4835588;29;20054;-83
2022/03/08 06:03:27;;;;;;;9.95;8.40;;;;;;;;;;4852441;29;20052;-82
2022/03/08 06:05:56;;;;;;;11.10;7.30;;;;;;;;;;4849604;29;20042;-84
2022/03/08 06:08:24;;;;;;;16.02;8.07;;;;;;;;;;4850990;29;20049;-83
2022/03/08 06:10:52;;;;;;;15.57;8.07;;;;;;;;;;4851906;29;20053;-82
2022/03/08 06:13:20;;;;;;;14.13;9.52;;;;;;;;;;4832498;29;20049;-83
2022/03/08 06:15:48;;;;;;;11.45;7.55;;;;;;;;;;4836633;29;20053;-83
2022/03/08 06:18:17;;;;;;;15.80;9.70;;;;;;;;;;4860009;29;20049;-84
2022/03/08 06:20:45;;;;;;;10.38;7.88;;;;;;;;;;4807668;29;20042;-85
2022/03/08 06:23:13;;;;;;;17.10;15.55;;;;;;;;;;4822422;29;20053;-86
2022/03/08 06:25:41;;;;;;;17.13;10.55;;;;;;;;;;4827270;29;20045;-85
2022/03/08 06:28:09;;;;;;;10.57;9.35;;;;;;;;;;4838696;29;20052;-86
2022/03/08 06:30:37;;;;;;;9.95;8.52;;;;;;;;;;4845063;29;20053;-88
2022/03/08 06:33:05;;;;;;;15.40;11.50;;;;;;;;;;4830903;29;20125;-86
2022/03/08 06:35:35;;;;;;;12.07;9.00;;;;;;;;;;4851090;29;20049;-85
2022/03/08 06:38:06;;;;;;;14.43;10.55;;;;;;;;;;4833640;29;20056;-86
2022/03/08 06:40:34;;;;;;;12.32;8.05;;;;;;;;;;4853325;29;20056;-86
2022/03/08 06:43:02;;;;;;;14.73;7.43;;;;;;;;;;4841568;29;20053;-86
2022/03/08 06:45:30;;;;;;;17.88;10.90;;;;;;;;;;4831302;29;20415;-86
2022/03/08 06:47:58;;;;;;;16.83;9.88;;;;;;;;;;4852234;29;20500;-86
2022/03/08 06:50:26;;;;;;;9.98;7.43;;;;;;;;;;4845140;29;20050;-85
2022/03/08 06:52:54;;;;;;;14.15;9.82;;;;;;;;;;4845251;29;20046;-86
2022/03/08 06:55:22;;;;;;;11.63;8.43;;;;;;;;;;4850042;29;20046;-86
2022/03/08 06:57:50;;;;;;;16.90;11.85;;;;;;;;;;4829679;29;20088;-85
2022/03/08 07:00:18;;;;;;;21.33;11.90;;;;;;;;;;4846823;29;20050;-86
2022/03/08 07:02:46;;;;;;;14.38;9.88;;;;;;;;;;4832921;29;20057;-85
2022/03/08 07:05:14;;;;;;;16.00;8.77;;;;;;;;;;4854025;29;20774;-86
2022/03/08 07:07:42;;;;;;;13.55;9.05;;;;;;;;;;4850711;29;20049;-86
2022/03/08 07:10:10;;;;;;;16.10;10.32;;;;;;;;;;4815861;29;20057;-86
2022/03/08 07:12:38;;;;;;;18.38;10.90;;;;;;;;;;4841182;29;20049;-86
2022/03/08 07:15:07;;;;;;;11.38;8.80;;;;;;;;;;4831067;29;20081;-85
2022/03/08 07:17:35;;;;;;;12.13;8.75;;;;;;;;;;4823405;29;20061;-86
2022/03/08 07:20:07;;;;;;;16.38;9.95;;;;;;;;;;4837956;29;20496;-86
2022/03/08 07:22:36;;;;;;;19.77;10.98;;;;;;;;;;4854137;29;20049;-86
2022/03/08 07:25:04;;;;;;;13.82;9.27;;;;;;;;;;4853312;29;20041;-86
2022/03/08 07:27:32;;;;;;;18.33;9.55;;;;;;;;;;4836835;29;20048;-83
2022/03/08 07:30:02;;;;;;;16.80;11.27;;;;;;;;;;4834975;29;20058;-86
2022/03/08 07:32:30;;;;;;;15.98;9.23;;;;;;;;;;4853648;29;20057;-87
2022/03/08 07:34:58;;;;;;;11.15;9.18;;;;;;;;;;4852632;29;20465;-86
2022/03/08 07:37:26;;;;;;;15.18;9.00;;;;;;;;;;4850912;29;20420;-86
2022/03/08 07:39:55;;;;;;;11.68;8.50;;;;;;;;;;4851158;29;20054;-86
2022/03/08 07:42:25;;;;;;;12.02;9.80;;;;;;;;;;4850214;29;20064;-86
2022/03/08 07:44:53;;;;;;;9.85;8.77;;;;;;;;;;4852537;29;20053;-86
2022/03/08 07:47:21;;;;;;;11.65;9.80;;;;;;;;;;4854923;29;20053;-87
2022/03/08 07:49:49;;;;;;;16.23;11.48;;;;;;;;;;4851348;29;20771;-87
2022/03/08 07:52:20;;;;;;;12.23;8.38;;;;;;;;;;4852382;29;20053;-86
2022/03/08 07:54:48;;;;;;;11.73;9.95;;;;;;;;;;4849660;29;20072;-88
2022/03/08 07:57:16;;;;;;;12.90;10.15;;;;;;;;;;4851710;29;20057;-87
2022/03/08 07:59:44;;;;;;;15.18;6.88;;;;;;;;;;4835222;29;20045;-86
2022/03/08 08:02:12;;;;;;;13.40;8.93;;;;;;;;;;4853455;29;20064;-87
2022/03/08 08:04:40;;;;;;;10.23;8.95;;;;;;;;;;4852728;29;20056;-87
2022/03/08 08:07:08;;;;;;;11.43;9.63;;;;;;;;;;4836298;29;20049;-87
2022/03/08 08:09:37;;;;;;;9.18;8.35;;;;;;;;;;4850994;29;20072;-87
2022/03/08 08:12:07;;;;;;;11.15;7.50;;;;;;;;;;4851469;29;20065;-84
2022/03/08 08:14:35;;;;;;;8.02;5.15;;;;;;;;;;4853246;29;20077;-83
2022/03/08 08:17:03;;;;;;;10.35;7.40;;;;;;;;;;4850277;29;20163;-84
2022/03/08 08:19:31;;;;;;;15.90;14.25;;;;;;;;;;4852888;29;20372;-85
2022/03/08 08:21:59;;;;;;;7.45;6.82;;;;;;;;;;4851038;29;20053;-85
2022/03/08 08:24:27;;;;;;;9.95;7.88;;;;;;;;;;4850152;29;20057;-85
2022/03/08 08:26:56;;;;;;;7.75;7.05;;;;;;;;;;4834597;29;20052;-83
2022/03/08 08:29:24;;;;;;;10.32;7.53;;;;;;;;;;4831593;29;20053;-85
2022/03/08 08:31:52;;;;;;;12.90;11.65;;;;;;;;;;4852464;29;20069;-85
2022/03/08 08:34:21;;;;;;;12.77;8.68;;;;;;;;;;4849763;29;20065;-86
2022/03/08 08:36:49;;;;;;;8.63;7.10;;;;;;;;;;4851172;29;20054;-85
2022/03/08 08:39:21;;;;;;;10.20;9.30;;;;;;;;;;4849055;29;20049;-86
2022/03/08 08:41:49;;;;;;;14.55;7.30;;;;;;;;;;4816933;29;20057;-86
2022/03/08 08:44:18;;;;;;;8.52;7.80;;;;;;;;;;4852266;29;20049;-87
2022/03/08 08:46:47;;;;;;;11.15;8.13;;;;;;;;;;4850031;29;20057;-87
2022/03/08 08:49:15;;;;;;;10.75;8.82;;;;;;;;;;4850317;29;20054;-85
2022/03/08 08:51:43;;;;;;;9.88;7.60;;;;;;;;;;4832480;29;20057;-85
2022/03/08 08:54:11;;;;;;;9.57;6.88;;;;;;;;;;4835883;29;20061;-86
2022/03/08 08:56:39;;;;;;;8.23;5.28;;;;;;;;;;4839813;29;20046;-85
2022/03/08 08:59:07;;;;;;;7.07;5.93;;;;;;;;;;4833894;29;20397;-83
2022/03/08 09:01:35;;;;;;;8.10;6.63;;;;;;;;;;4811832;29;20061;-82
2022/03/08 09:04:04;;;;;;;9.15;6.20;;;;;;;;;;4852251;29;20403;-83
2022/03/08 09:06:32;;;;;;;7.95;5.22;;;;;;;;;;4839077;29;20052;-84
2022/03/08 09:09:00;;;;;;;4.82;3.40;;;;;;;;;;4818826;29;20057;-84
2022/03/08 09:11:29;;;;;;;4.53;4.07;;;;;;;;;;4821321;29;20053;-84
2022/03/08 09:13:58;;;;;;;9.18;7.05;;;;;;;;;;4822405;29;20038;-83
2022/03/08 09:16:27;;;;;;;4.57;3.95;;;;;;;;;;4834736;29;20045;-81
2022/03/08 09:18:55;;;;;;;6.03;5.25;;;;;;;;;;4839343;29;20049;-84
2022/03/08 09:21:23;;;;;;;8.13;7.30;;;;;;;;;;4833904;29;20046;-85
2022/03/08 09:23:51;;;;;;;4.93;4.20;;;;;;;;;;4850676;29;20045;-83
2022/03/08 09:26:19;;;;;;;10.88;6.50;;;;;;;;;;4848893;29;20050;-82
2022/03/08 09:28:47;;;;;;;10.32;9.27;;;;;;;;;;4839056;29;20064;-83
2022/03/08 09:31:15;;;;;;;8.40;7.63;;;;;;;;;;4820917;29;20488;-81
2022/03/08 09:33:44;;;;;;;10.07;9.05;;;;;;;;;;4811898;29;20061;-78
2022/03/08 09:36:12;;;;;;;9.95;8.02;;;;;;;;;;4853089;29;20049;-87
2022/03/08 09:38:40;;;;;;;8.48;7.65;;;;;;;;;;4835065;29;20487;-78
2022/03/08 09:41:08;;;;;;;6.00;5.30;;;;;;;;;;4848761;29;20061;-79
2022/03/08 09:43:37;;;;;;;5.80;5.28;;;;;;;;;;4833297;29;20073;-78
2022/03/08 09:46:06;;;;;;;4.47;3.55;;;;;;;;;;4852934;29;20041;-78
2022/03/08 09:48:34;;;;;;;10.63;7.95;;;;;;;;;;4851348;29;20060;-78
2022/03/08 09:51:03;;;;;;;4.40;4.10;;;;;;;;;;4850419;29;20045;-79
2022/03/08 09:53:32;;;;;;;8.95;6.97;;;;;;;;;;4851274;29;20050;-79
2022/03/08 09:56:00;;;;;;;6.07;5.05;;;;;;;;;;4848533;29;22319;-78
2022/03/08 09:58:31;;;;;;;4.30;4.00;;;;;;;;;;4854129;29;20049;-80
2022/03/08 10:01:03;;;;;;;6.50;4.05;;;;;;;;;;4834937;29;20053;-79
2022/03/08 10:03:40;;;;;;;6.22;5.55;;;;;;;;;;4836063;29;20431;-77
2022/03/08 10:06:09;;;;;;;6.85;6.20;;;;;;;;;;4851546;29;20059;-77
2022/03/08 10:08:38;;;;;;;4.63;4.22;;;;;;;;;;4833522;29;20496;-78
2022/03/08 10:11:11;;;;;;;8.18;4.45;;;;;;;;;;4847922;29;20060;-78
2022/03/08 10:13:50;;;;;;;4.22;3.78;;;;;;;;;;4851010;29;20132;-79
2022/03/08 10:16:23;;;;;;;4.00;2.42;;;;;;;;;;4835213;29;20053;-78
2022/03/08 10:18:56;;;;;;;7.38;6.32;;;;;;;;;;4836176;29;20046;-78
2022/03/08 10:21:27;;;;;;;3.38;2.88;;;;;;;;;;4850834;29;20049;-79
2022/03/08 10:23:55;;;;;;;3.65;2.28;;;;;;;;;;4852544;29;20073;-79
2022/03/08 10:26:23;;;;;;;2.42;2.28;;;;;;;;;;4852284;29;20053;-79
2022/03/08 10:28:53;;;;;;;4.40;3.25;;;;;;;;;;4850984;29;20534;-78
2022/03/08 10:31:22;;;;;;;8.07;7.28;;;;;;;;;;4855459;29;20419;-78
2022/03/08 10:33:50;;;;;;;3.55;2.83;;;;;;;;;;4851006;29;20042;-79
2022/03/08 10:36:21;;;;;;;5.53;4.30;;;;;;;;;;4852092;29;20416;-78
2022/03/08 10:39:07;;;;;;;6.60;6.03;;;;;;;;;;4847992;29;20432;-77
2022/03/08 10:41:50;;;;;;;4.88;4.38;;;;;;;;;;4850636;29;20041;-77
2022/03/08 10:44:33;;;;;;;4.07;2.25;;;;;;;;;;4833128;29;20050;-77
2022/03/08 10:47:04;;;;;;;7.13;5.63;;;;;;;;;;4851649;29;20056;-78
2022/03/08 10:49:32;;;;;;;4.80;3.60;;;;;;;;;;4848564;29;20046;-86
2022/03/08 10:52:02;;;;;;;6.78;4.13;;;;;;;;;;4830039;29;20061;-85
2022/03/08 10:54:30;;;;;;;5.95;4.18;;;;;;;;;;4848801;29;20050;-85
2022/03/08 10:56:58;;;;;;;5.10;4.60;;;;;;;;;;4837535;29;20496;-84
2022/03/08 10:59:27;;;;;;;3.58;3.28;;;;;;;;;;4853435;29;20052;-80
2022/03/08 11:02:24;;;;;;;2.67;2.47;;;;;;;;;;4822480;29;20393;-81
2022/03/08 11:05:09;;;;;;;4.30;4.00;;;;;;;;;;4832741;29;20551;-77
2022/03/08 11:07:37;;;;;;;4.68;3.58;;;;;;;;;;4852970;29;20041;-85
2022/03/08 11:10:08;;;;;;;6.13;3.70;;;;;;;;;;4830906;29;20398;-85
2022/03/08 11:12:36;;;;;;;8.05;5.22;;;;;;;;;;4847506;29;20042;-82
2022/03/08 11:15:09;;;;;;;8.65;6.20;;;;;;;;;;4847837;29;20054;-82
2022/03/08 11:17:40;;;;;;;5.70;5.10;;;;;;;;;;4847619;29;20046;-86
2022/03/08 11:20:09;;;;;;;4.53;4.13;;;;;;;;;;4847413;29;20049;-80
2022/03/08 11:22:37;;;;;;;6.18;5.68;;;;;;;;;;4847005;29;20302;-76
2022/03/08 11:25:06;;;;;;;9.88;2.35;;;;;;;;;;4846000;29;20057;-76
2022/03/08 11:27:49;;;;;;;4.82;4.53;;;;;;;;;;4845148;29;20054;-78
2022/03/08 11:30:18;;;;;;;14.27;7.22;;;;;;;;;;4832286;29;20073;-77
2022/03/08 11:32:55;;;;;;;2.67;2.47;;;;;;;;;;4848162;29;20046;-77
2022/03/08 11:35:32;;;;;;;6.88;5.95;;;;;;;;;;4831874;29;20420;-78
2022/03/08 11:38:01;;;;;;;3.88;3.10;;;;;;;;;;4848854;29;20053;-79
2022/03/08 11:40:31;;;;;;;3.53;2.97;;;;;;;;;;4847146;29;20057;-79
2022/03/08 11:43:04;;;;;;;3.73;3.40;;;;;;;;;;4848120;29;20057;-79
2022/03/08 11:45:33;;;;;;;4.13;3.67;;;;;;;;;;4848830;29;20484;-79
2022/03/08 11:48:02;;;;;;;5.03;4.63;;;;;;;;;;4856302;29;20053;-78
2022/03/08 11:50:33;;;;;;;5.18;4.68;;;;;;;;;;4850316;29;20053;-79
2022/03/08 11:53:05;;;;;;;4.55;2.85;;;;;;;;;;4832985;29;20053;-80
2022/03/08 11:55:36;;;;;;;5.40;4.03;;;;;;;;;;4848974;29;20049;-79
2022/03/08 11:58:08;;;;;;;4.73;3.40;;;;;;;;;;4851091;29;20058;-79
2022/03/08 12:00:38;;;;;;;6.70;5.38;;;;;;;;;;4848473;29;20046;-80
2022/03/08 12:03:10;;;;;;;5.05;4.50;;;;;;;;;;4850117;29;20097;-80
2022/03/08 12:05:38;;;;;;;4.82;3.80;;;;;;;;;;4852732;29;20050;-82
2022/03/08 12:08:25;;;;;;;5.40;4.63;;;;;;;;;;4851366;29;20049;-80
2022/03/08 12:11:00;;;;;;;5.70;5.25;;;;;;;;;;4839038;29;20057;-79
2022/03/08 12:13:39;;;;;;;11.40;7.85;;;;;;;;;;4839616;29;20085;-79
2022/03/08 12:16:08;;;;;;;11.05;8.55;;;;;;;;;;4841646;29;20043;-78
2022/03/08 12:18:40;;;;;;;10.38;7.03;;;;;;;;;;4841350;29;20042;-78
2022/03/08 12:21:18;;;;;;;5.20;4.72;;;;;;;;;;4809941;29;20061;-79
2022/03/08 12:23:55;;;;;;;7.93;6.10;;;;;;;;;;4841378;29;20404;-80
2022/03/08 12:26:24;;;;;;;5.00;4.55;;;;;;;;;;4809974;29;20061;-79
2022/03/08 12:29:04;;;;;;;8.00;7.25;;;;;;;;;;4826746;29;20053;-79
2022/03/08 12:31:33;;;;;;;9.38;5.65;;;;;;;;;;4844861;29;20396;-79
2022/03/08 12:34:07;;;;;;;4.40;3.63;;;;;;;;;;4841172;29;20042;-84
2022/03/08 12:37:13;;;;;;;6.10;3.88;;;;;;;;;;4838918;29;20065;-84
2022/03/08 12:39:45;;;;;;;5.88;3.63;;;;;;;;;;4809543;29;20811;-84
2022/03/08 12:42:36;;;;;;;3.77;3.27;;;;;;;;;;4825087;29;20053;-79
2022/03/08 12:45:25;;;;;;;3.55;3.00;;;;;;;;;;4821173;29;20050;-89
2022/03/08 12:47:56;;;;;;;3.67;2.80;;;;;;;;;;4824692;29;20037;-80
2022/03/08 12:50:38;;;;;;;2.22;2.03;;;;;;;;;;4809402;29;20058;-81
2022/03/08 12:53:05;;;;;;;;;;;;;;;;;;4824731;29;20057;-80
2022/03/08 12:55:35;;;;;;;3.03;2.75;;;;;;;;;;4840714;29;19933;-82
2022/03/08 12:58:07;;;;;;;4.28;2.00;;;;;;;;;;4840345;29;20429;-82
2022/03/08 13:00:44;;;;;;;6.80;3.35;;;;;;;;;;4819711;29;20050;-80
2022/03/08 13:03:21;;;;;;;4.40;2.15;;;;;;;;;;4840841;29;20405;-80
2022/03/08 13:06:09;;;;;;;4.63;3.10;;;;;;;;;;4809371;29;20386;-82
2022/03/08 13:08:38;;;;;;;4.05;3.75;;;;;;;;;;4837200;29;20053;-79
2022/03/08 13:11:11;;;;;;;4.20;3.90;;;;;;;;;;4840825;29;20060;-78
2022/03/08 13:13:49;;;;;;;3.25;1.77;;;;;;;;;;4828302;29;20100;-78
2022/03/08 13:16:18;;;;;;;5.53;4.43;;;;;;;;;;4811841;29;20412;-79
2022/03/08 13:18:46;;;;;;;7.07;4.03;;;;;;;;;;4841898;29;20050;-79
2022/03/08 13:21:16;;;;;;;4.18;3.83;;;;;;;;;;4845211;29;20864;-80
2022/03/08 13:23:46;;;;;;;3.70;2.90;;;;;;;;;;4857524;29;20131;-79
2022/03/08 13:29:18;;;;;;;5.30;4.80;;;;;;;;;;4854978;29;20148;-81
2022/03/08 13:31:47;;;;;;;5.05;3.47;;;;;;;;;;4818252;29;20068;-80
2022/03/08 13:34:15;;;;;;;7.57;3.75;;;;;;;;;;4824065;29;20488;-77
2022/03/08 13:36:43;;;;;;;17.63;4.05;;;;;;;;;;4846190;29;20516;-79
2022/03/08 13:39:11;;;;;;;4.40;3.92;;;;;;;;;;4849024;29;20053;-80
2022/03/08 13:41:58;;;;;;;4.80;4.30;;;;;;;;;;4836248;29;20042;-78
2022/03/08 13:44:26;;;;;;;6.38;5.13;;;;;;;;;;4823612;29;20046;-77
2022/03/08 13:46:55;;;;;;;6.82;5.60;;;;;;;;;;4822991;29;20065;-77
2022/03/08 13:49:23;;;;;;;4.82;4.38;;;;;;;;;;4821826;29;20050;-77
2022/03/08 13:51:57;;;;;;;4.32;3.53;;;;;;;;;;4841299;29;20053;-78
2022/03/08 13:54:25;;;;;;;4.45;3.90;;;;;;;;;;4842003;29;20056;-77
2022/03/08 13:56:54;;;;;;;6.75;3.13;;;;;;;;;;4857522;29;20103;-77
2022/03/08 13:59:35;;;;;;;4.13;2.55;;;;;;;;;;4826138;29;20060;-78
2022/03/08 14:02:04;;;;;;;4.55;3.92;;;;;;;;;;4835298;29;20038;-78
2022/03/08 14:04:33;;;;;;;3.05;2.85;;;;;;;;;;4827857;29;20060;-78
2022/03/08 14:07:01;;;;;;;8.00;5.20;;;;;;;;;;4858489;29;20472;-80
2022/03/08 14:09:29;;;;;;;4.90;3.20;;;;;;;;;;4857609;29;20053;-78
2022/03/08 14:11:58;;;;;;;3.25;3.05;;;;;;;;;;4849927;29;20057;-85
2022/03/08 14:14:28;;;;;;;4.32;3.97;;;;;;;;;;4802018;29;20066;-86
2022/03/08 14:16:58;;;;;;;;;;;;;;;;;;4810669;29;20531;-85
2022/03/08 14:19:42;;;;;;;5.57;5.05;;;;;;;;;;4838566;29;19925;-84
2022/03/08 14:22:10;;;;;;;5.72;3.40;;;;;;;;;;4825963;29;20615;-85
2022/03/08 14:24:39;;;;;;;3.92;3.50;;;;;;;;;;4835247;29;20046;-84
2022/03/08 14:27:08;;;;;;;8.35;3.58;;;;;;;;;;4831096;29;20045;-86
2022/03/08 14:29:37;;;;;;;3.95;3.05;;;;;;;;;;4837836;29;20041;-87
2022/03/08 14:32:07;;;;;;;4.15;2.75;;;;;;;;;;4836399;29;20108;-84
2022/03/08 14:34:36;;;;;;;6.57;3.40;;;;;;;;;;4821373;29;20419;-85
2022/03/08 14:37:05;;;;;;;4.05;3.05;;;;;;;;;;4817017;29;20054;-89
2022/03/08 14:39:38;;;;;;;6.43;5.35;;;;;;;;;;4834881;29;20049;-86
2022/03/08 14:42:09;;;;;;;5.78;5.20;;;;;;;;;;4803550;29;20053;-86
2022/03/08 14:44:48;;;;;;;10.80;5.32;;;;;;;;;;4831759;29;20053;-88
2022/03/08 14:47:27;;;;;;;5.50;3.80;;;;;;;;;;4834910;29;20065;-85
2022/03/08 14:49:56;;;;;;;5.25;3.95;;;;;;;;;;4823281;29;20053;-85
2022/03/08 14:52:25;;;;;;;5.70;5.28;;;;;;;;;;4837765;29;20041;-87
2022/03/08 14:54:54;;;;;;;7.45;4.85;;;;;;;;;;4835382;29;20381;-86
2022/03/08 14:57:43;;;;;;;4.75;4.32;;;;;;;;;;4830762;29;20046;-86